sensor_id;sensor_type;location;lat;lon;timestamp;noise_LAeq;noise_LA_min;noise_LA_max;noise_LA01;noise_LA95
71030;Laerm;63723;51.436;5.976;2023-02-01T00:00:06;53.47;50.15;56.08;;
71030;Laerm;63723;51.436;5.976;2023-02-01T00:00:16;53.65;50.37;56.56;;
71030;Laerm;63723;51.436;5.976;2023-02-01T00:00:27;53.54;49.75;56.28;;
71030;Laerm;63723;51.436;5.976;2023-02-01T00:00:37;52.46;49.04;55.11;;
71030;Laerm;63723;51.436;5.976;2023-02-01T00:00:47;52.68;48.88;55.53;;
71030;Laerm;63723;51.436;5.976;2023-02-01T00:00:58;54.26;49.60;57.53;;
71030;Laerm;63723;51.436;5.976;2023-02-01T00:01:08;55.10;51.00;57.45;;
71030;Laerm;63723;51.436;5.976;2023-02-01T00:01:19;53.98;50.10;56.64;;
71030;Laerm;63723;51.436;5.976;2023-02-01T00:01:29;55.11;50.70;57.53;;
71030;Laerm;63723;51.436;5.976;2023-02-01T00:01:39;55.96;51.17;58.10;;
71030;Laerm;63723;51.436;5.976;2023-02-01T00:01:50;55.43;51.57;58.04;;
71030;Laerm;63723;51.436;5.976;2023-02-01T00:02:00;56.07;50.91;59.20;;
71030;Laerm;63723;51.436;5.976;2023-02-01T00:02:11;55.42;49.70;59.06;;
71030;Laerm;63723;51.436;5.976;2023-02-01T00:02:21;54.90;49.90;57.71;;
71030;Laerm;63723;51.436;5.976;2023-02-01T00:02:31;54.40;49.86;57.87;;
71030;Laerm;63723;51.436;5.976;2023-02-01T00:02:42;54.04;49.72;58.83;;
71030;Laerm;63723;51.436;5.976;2023-02-01T00:02:52;53.72;49.52;56.45;;
71030;Laerm;63723;51.436;5.976;2023-02-01T00:03:02;54.03;49.18;57.30;;
71030;Laerm;63723;51.436;5.976;2023-02-01T00:03:13;55.04;50.09;57.90;;
71030;Laerm;63723;51.436;5.976;2023-02-01T00:03:24;55.09;50.19;57.21;;
71030;Laerm;63723;51.436;5.976;2023-02-01T00:03:34;54.38;49.43;57.35;;
71030;Laerm;63723;51.436;5.976;2023-02-01T00:03:45;54.67;50.08;57.20;;
71030;Laerm;63723;51.436;5.976;2023-02-01T00:03:55;56.14;52.07;58.34;;
71030;Laerm;63723;51.436;5.976;2023-02-01T00:04:05;55.97;50.92;58.09;;
71030;Laerm;63723;51.436;5.976;2023-02-01T00:04:16;55.54;51.15;58.20;;
71030;Laerm;63723;51.436;5.976;2023-02-01T00:04:26;54.85;50.79;57.14;;
71030;Laerm;63723;51.436;5.976;2023-02-01T00:04:36;53.93;50.47;55.69;;
71030;Laerm;63723;51.436;5.976;2023-02-01T00:04:47;54.02;51.01;55.89;;
71030;Laerm;63723;51.436;5.976;2023-02-01T00:04:57;54.15;50.87;55.94;;
71030;Laerm;63723;51.436;5.976;2023-02-01T00:05:08;54.03;50.79;56.93;;
71030;Laerm;63723;51.436;5.976;2023-02-01T00:05:18;54.41;51.33;57.14;;
71030;Laerm;63723;51.436;5.976;2023-02-01T00:05:29;55.41;52.65;57.36;;
71030;Laerm;63723;51.436;5.976;2023-02-01T00:05:39;55.21;51.85;57.44;;
71030;Laerm;63723;51.436;5.976;2023-02-01T00:05:58;54.83;51.10;56.66;;
71030;Laerm;63723;51.436;5.976;2023-02-01T00:06:09;54.77;51.08;57.42;;
71030;Laerm;63723;51.436;5.976;2023-02-01T00:06:19;54.63;51.66;56.81;;
71030;Laerm;63723;51.436;5.976;2023-02-01T00:06:29;54.97;50.35;58.14;;
71030;Laerm;63723;51.436;5.976;2023-02-01T00:06:40;54.62;50.67;56.98;;
71030;Laerm;63723;51.436;5.976;2023-02-01T00:06:50;54.64;50.36;56.74;;
71030;Laerm;63723;51.436;5.976;2023-02-01T00:07:00;54.02;50.45;57.13;;
71030;Laerm;63723;51.436;5.976;2023-02-01T00:07:11;54.68;50.06;57.09;;
71030;Laerm;63723;51.436;5.976;2023-02-01T00:07:21;55.64;51.56;58.26;;
71030;Laerm;63723;51.436;5.976;2023-02-01T00:07:31;55.46;50.14;57.53;;
71030;Laerm;63723;51.436;5.976;2023-02-01T00:07:42;54.64;49.59;57.31;;
71030;Laerm;63723;51.436;5.976;2023-02-01T00:07:52;54.74;49.93;57.46;;
71030;Laerm;63723;51.436;5.976;2023-02-01T00:08:02;54.63;50.16;56.72;;
71030;Laerm;63723;51.436;5.976;2023-02-01T00:08:13;54.28;49.32;56.85;;
71030;Laerm;63723;51.436;5.976;2023-02-01T00:08:23;55.11;50.00;57.13;;
71030;Laerm;63723;51.436;5.976;2023-02-01T00:08:33;52.67;49.40;56.80;;
71030;Laerm;63723;51.436;5.976;2023-02-01T00:08:45;51.68;48.99;56.12;;
71030;Laerm;63723;51.436;5.976;2023-02-01T00:08:55;51.52;49.23;54.80;;
71030;Laerm;63723;51.436;5.976;2023-02-01T00:09:05;52.70;49.58;55.64;;
71030;Laerm;63723;51.436;5.976;2023-02-01T00:09:16;52.47;49.36;54.76;;
71030;Laerm;63723;51.436;5.976;2023-02-01T00:09:26;52.56;49.71;56.06;;
71030;Laerm;63723;51.436;5.976;2023-02-01T00:09:36;52.82;49.71;55.48;;
71030;Laerm;63723;51.436;5.976;2023-02-01T00:09:47;52.81;49.39;55.60;;
71030;Laerm;63723;51.436;5.976;2023-02-01T00:09:57;52.76;49.59;55.17;;
71030;Laerm;63723;51.436;5.976;2023-02-01T00:10:07;52.55;49.28;55.31;;
71030;Laerm;63723;51.436;5.976;2023-02-01T00:10:18;52.74;49.94;55.82;;
71030;Laerm;63723;51.436;5.976;2023-02-01T00:10:28;52.88;49.69;56.26;;
71030;Laerm;63723;51.436;5.976;2023-02-01T00:10:38;52.64;49.86;55.03;;
71030;Laerm;63723;51.436;5.976;2023-02-01T00:10:56;52.81;49.32;55.40;;
71030;Laerm;63723;51.436;5.976;2023-02-01T00:11:08;52.62;49.56;55.79;;
71030;Laerm;63723;51.436;5.976;2023-02-01T00:11:18;52.58;49.65;55.74;;
71030;Laerm;63723;51.436;5.976;2023-02-01T00:11:28;52.49;49.38;54.51;;
71030;Laerm;63723;51.436;5.976;2023-02-01T00:11:39;53.61;49.92;57.66;;
71030;Laerm;63723;51.436;5.976;2023-02-01T00:11:49;54.63;50.18;60.13;;
71030;Laerm;63723;51.436;5.976;2023-02-01T00:11:59;54.39;49.00;57.03;;
71030;Laerm;63723;51.436;5.976;2023-02-01T00:12:11;54.74;49.70;58.13;;
71030;Laerm;63723;51.436;5.976;2023-02-01T00:12:22;54.89;49.90;57.95;;
71030;Laerm;63723;51.436;5.976;2023-02-01T00:12:32;55.15;50.65;58.65;;
71030;Laerm;63723;51.436;5.976;2023-02-01T00:12:42;55.53;50.40;58.47;;
71030;Laerm;63723;51.436;5.976;2023-02-01T00:12:53;54.72;50.01;60.49;;
71030;Laerm;63723;51.436;5.976;2023-02-01T00:13:03;55.23;49.36;58.53;;
71030;Laerm;63723;51.436;5.976;2023-02-01T00:13:13;55.77;52.17;59.40;;
71030;Laerm;63723;51.436;5.976;2023-02-01T00:13:23;53.74;49.88;57.42;;
71030;Laerm;63723;51.436;5.976;2023-02-01T00:13:34;53.63;49.73;56.62;;
71030;Laerm;63723;51.436;5.976;2023-02-01T00:13:45;53.96;49.51;56.96;;
71030;Laerm;63723;51.436;5.976;2023-02-01T00:13:56;54.72;49.88;57.35;;
71030;Laerm;63723;51.436;5.976;2023-02-01T00:14:06;53.59;49.75;56.81;;
71030;Laerm;63723;51.436;5.976;2023-02-01T00:14:18;54.13;49.85;56.85;;
71030;Laerm;63723;51.436;5.976;2023-02-01T00:14:28;54.57;50.37;58.90;;
71030;Laerm;63723;51.436;5.976;2023-02-01T00:14:39;55.09;49.99;58.14;;
71030;Laerm;63723;51.436;5.976;2023-02-01T00:14:49;53.04;49.33;56.15;;
71030;Laerm;63723;51.436;5.976;2023-02-01T00:15:00;53.51;49.27;56.40;;
71030;Laerm;63723;51.436;5.976;2023-02-01T00:15:10;53.80;49.46;56.59;;
71030;Laerm;63723;51.436;5.976;2023-02-01T00:15:20;53.53;49.35;56.11;;
71030;Laerm;63723;51.436;5.976;2023-02-01T00:15:30;53.78;49.33;56.37;;
71030;Laerm;63723;51.436;5.976;2023-02-01T00:15:41;53.13;49.35;56.11;;
71030;Laerm;63723;51.436;5.976;2023-02-01T00:15:51;53.40;49.63;57.28;;
71030;Laerm;63723;51.436;5.976;2023-02-01T00:16:02;53.28;49.43;56.29;;
71030;Laerm;63723;51.436;5.976;2023-02-01T00:16:14;53.01;49.10;56.18;;
71030;Laerm;63723;51.436;5.976;2023-02-01T00:16:29;52.94;49.75;56.26;;
71030;Laerm;63723;51.436;5.976;2023-02-01T00:16:40;53.31;48.78;56.35;;
71030;Laerm;63723;51.436;5.976;2023-02-01T00:16:50;52.72;48.99;55.63;;
71030;Laerm;63723;51.436;5.976;2023-02-01T00:17:00;53.61;49.26;57.05;;
71030;Laerm;63723;51.436;5.976;2023-02-01T00:17:10;52.78;49.06;55.94;;
71030;Laerm;63723;51.436;5.976;2023-02-01T00:17:21;53.14;48.70;56.23;;
71030;Laerm;63723;51.436;5.976;2023-02-01T00:17:31;53.20;48.88;55.93;;
71030;Laerm;63723;51.436;5.976;2023-02-01T00:17:41;53.17;50.37;57.37;;
71030;Laerm;63723;51.436;5.976;2023-02-01T00:17:54;53.61;50.29;56.82;;
71030;Laerm;63723;51.436;5.976;2023-02-01T00:18:05;53.22;49.57;55.94;;
71030;Laerm;63723;51.436;5.976;2023-02-01T00:18:15;53.07;49.58;55.92;;
71030;Laerm;63723;51.436;5.976;2023-02-01T00:18:25;53.28;49.24;56.12;;
71030;Laerm;63723;51.436;5.976;2023-02-01T00:18:35;54.45;49.89;58.20;;
71030;Laerm;63723;51.436;5.976;2023-02-01T00:18:46;54.50;50.16;58.12;;
71030;Laerm;63723;51.436;5.976;2023-02-01T00:18:59;53.93;49.97;56.98;;
71030;Laerm;63723;51.436;5.976;2023-02-01T00:19:11;52.93;48.99;57.23;;
71030;Laerm;63723;51.436;5.976;2023-02-01T00:19:21;51.09;48.97;53.61;;
71030;Laerm;63723;51.436;5.976;2023-02-01T00:19:32;51.61;49.01;56.09;;
71030;Laerm;63723;51.436;5.976;2023-02-01T00:19:42;53.31;49.56;56.39;;
71030;Laerm;63723;51.436;5.976;2023-02-01T00:19:53;54.48;49.94;58.28;;
71030;Laerm;63723;51.436;5.976;2023-02-01T00:20:03;54.14;50.02;57.52;;
71030;Laerm;63723;51.436;5.976;2023-02-01T00:20:13;53.44;49.35;57.29;;
71030;Laerm;63723;51.436;5.976;2023-02-01T00:20:23;52.54;49.36;56.04;;
71030;Laerm;63723;51.436;5.976;2023-02-01T00:20:34;52.33;49.67;54.74;;
71030;Laerm;63723;51.436;5.976;2023-02-01T00:20:47;52.89;49.90;55.62;;
71030;Laerm;63723;51.436;5.976;2023-02-01T00:20:57;53.44;50.26;57.07;;
71030;Laerm;63723;51.436;5.976;2023-02-01T00:21:10;52.71;49.08;55.45;;
71030;Laerm;63723;51.436;5.976;2023-02-01T00:21:20;53.45;49.52;56.94;;
71030;Laerm;63723;51.436;5.976;2023-02-01T00:21:31;54.51;49.81;57.19;;
71030;Laerm;63723;51.436;5.976;2023-02-01T00:21:42;54.16;50.18;57.30;;
71030;Laerm;63723;51.436;5.976;2023-02-01T00:21:53;54.67;50.83;57.40;;
71030;Laerm;63723;51.436;5.976;2023-02-01T00:22:04;54.54;51.22;57.29;;
71030;Laerm;63723;51.436;5.976;2023-02-01T00:22:14;54.98;49.75;58.08;;
71030;Laerm;63723;51.436;5.976;2023-02-01T00:22:24;54.72;50.03;58.43;;
71030;Laerm;63723;51.436;5.976;2023-02-01T00:22:34;54.88;50.09;58.62;;
71030;Laerm;63723;51.436;5.976;2023-02-01T00:22:45;54.84;49.76;59.79;;
71030;Laerm;63723;51.436;5.976;2023-02-01T00:22:55;54.86;49.49;59.03;;
71030;Laerm;63723;51.436;5.976;2023-02-01T00:23:05;54.87;50.83;60.17;;
71030;Laerm;63723;51.436;5.976;2023-02-01T00:23:17;54.47;50.01;58.98;;
71030;Laerm;63723;51.436;5.976;2023-02-01T00:23:28;54.89;49.41;59.52;;
71030;Laerm;63723;51.436;5.976;2023-02-01T00:23:38;55.18;51.37;58.29;;
71030;Laerm;63723;51.436;5.976;2023-02-01T00:23:51;54.72;50.36;59.03;;
71030;Laerm;63723;51.436;5.976;2023-02-01T00:24:01;54.75;49.63;58.36;;
71030;Laerm;63723;51.436;5.976;2023-02-01T00:24:12;54.30;50.13;58.12;;
71030;Laerm;63723;51.436;5.976;2023-02-01T00:24:22;54.66;50.65;58.70;;
71030;Laerm;63723;51.436;5.976;2023-02-01T00:24:32;55.05;51.09;58.32;;
71030;Laerm;63723;51.436;5.976;2023-02-01T00:24:43;55.06;50.97;58.40;;
71030;Laerm;63723;51.436;5.976;2023-02-01T00:24:53;55.21;51.12;58.90;;
71030;Laerm;63723;51.436;5.976;2023-02-01T00:25:03;54.84;50.14;59.45;;
71030;Laerm;63723;51.436;5.976;2023-02-01T00:25:14;54.75;50.57;58.26;;
71030;Laerm;63723;51.436;5.976;2023-02-01T00:25:24;54.73;50.35;58.77;;
71030;Laerm;63723;51.436;5.976;2023-02-01T00:25:34;54.40;49.92;58.41;;
71030;Laerm;63723;51.436;5.976;2023-02-01T00:25:44;54.45;50.10;58.56;;
71030;Laerm;63723;51.436;5.976;2023-02-01T00:25:55;55.16;50.99;59.28;;
71030;Laerm;63723;51.436;5.976;2023-02-01T00:26:19;54.82;49.71;59.18;;
71030;Laerm;63723;51.436;5.976;2023-02-01T00:26:31;54.62;50.02;58.89;;
71030;Laerm;63723;51.436;5.976;2023-02-01T00:26:43;54.47;51.00;57.79;;
71030;Laerm;63723;51.436;5.976;2023-02-01T00:26:53;55.48;49.03;59.03;;
71030;Laerm;63723;51.436;5.976;2023-02-01T00:27:04;56.38;50.82;59.33;;
71030;Laerm;63723;51.436;5.976;2023-02-01T00:27:14;55.56;49.76;58.26;;
71030;Laerm;63723;51.436;5.976;2023-02-01T00:27:27;55.35;50.52;58.75;;
71030;Laerm;63723;51.436;5.976;2023-02-01T00:27:37;55.33;50.33;58.43;;
71030;Laerm;63723;51.436;5.976;2023-02-01T00:27:48;54.28;50.06;58.06;;
71030;Laerm;63723;51.436;5.976;2023-02-01T00:27:58;53.57;49.62;56.83;;
71030;Laerm;63723;51.436;5.976;2023-02-01T00:28:09;55.05;50.61;58.29;;
71030;Laerm;63723;51.436;5.976;2023-02-01T00:28:19;54.48;50.24;56.85;;
71030;Laerm;63723;51.436;5.976;2023-02-01T00:28:29;54.73;49.93;57.14;;
71030;Laerm;63723;51.436;5.976;2023-02-01T00:28:40;54.80;49.49;57.73;;
71030;Laerm;63723;51.436;5.976;2023-02-01T00:28:50;55.62;50.69;58.59;;
71030;Laerm;63723;51.436;5.976;2023-02-01T00:29:02;54.94;50.79;58.64;;
71030;Laerm;63723;51.436;5.976;2023-02-01T00:29:14;55.24;49.98;58.00;;
71030;Laerm;63723;51.436;5.976;2023-02-01T00:29:25;53.79;49.05;57.89;;
71030;Laerm;63723;51.436;5.976;2023-02-01T00:29:36;55.05;50.26;58.79;;
71030;Laerm;63723;51.436;5.976;2023-02-01T00:29:46;55.62;51.18;58.41;;
71030;Laerm;63723;51.436;5.976;2023-02-01T00:29:56;54.88;50.04;57.80;;
71030;Laerm;63723;51.436;5.976;2023-02-01T00:30:07;55.80;51.00;58.74;;
71030;Laerm;63723;51.436;5.976;2023-02-01T00:30:17;55.08;51.26;58.19;;
71030;Laerm;63723;51.436;5.976;2023-02-01T00:30:28;54.86;50.12;57.67;;
71030;Laerm;63723;51.436;5.976;2023-02-01T00:30:38;55.17;50.10;58.57;;
71030;Laerm;63723;51.436;5.976;2023-02-01T00:30:55;54.00;50.71;56.61;;
71030;Laerm;63723;51.436;5.976;2023-02-01T00:31:05;55.44;50.47;60.47;;
71030;Laerm;63723;51.436;5.976;2023-02-01T00:31:16;59.07;54.24;61.13;;
71030;Laerm;63723;51.436;5.976;2023-02-01T00:31:26;58.63;56.07;61.19;;
71030;Laerm;63723;51.436;5.976;2023-02-01T00:31:36;58.74;54.78;61.29;;
71030;Laerm;63723;51.436;5.976;2023-02-01T00:31:49;58.71;54.70;61.28;;
71030;Laerm;63723;51.436;5.976;2023-02-01T00:31:59;57.73;53.36;61.76;;
71030;Laerm;63723;51.436;5.976;2023-02-01T00:32:09;59.10;54.80;61.00;;
71030;Laerm;63723;51.436;5.976;2023-02-01T00:32:20;59.06;55.74;61.46;;
71030;Laerm;63723;51.436;5.976;2023-02-01T00:32:30;58.01;53.05;60.59;;
71030;Laerm;63723;51.436;5.976;2023-02-01T00:32:41;58.01;53.51;60.93;;
71030;Laerm;63723;51.436;5.976;2023-02-01T00:32:52;57.50;54.30;60.27;;
71030;Laerm;63723;51.436;5.976;2023-02-01T00:33:02;57.92;53.74;60.56;;
71030;Laerm;63723;51.436;5.976;2023-02-01T00:33:12;58.57;54.41;61.16;;
71030;Laerm;63723;51.436;5.976;2023-02-01T00:33:23;58.73;55.24;61.95;;
71030;Laerm;63723;51.436;5.976;2023-02-01T00:33:33;58.66;54.45;61.34;;
71030;Laerm;63723;51.436;5.976;2023-02-01T00:33:46;57.95;52.23;61.26;;
71030;Laerm;63723;51.436;5.976;2023-02-01T00:33:56;57.31;54.25;60.59;;
71030;Laerm;63723;51.436;5.976;2023-02-01T00:34:07;55.99;51.39;58.46;;
71030;Laerm;63723;51.436;5.976;2023-02-01T00:34:18;55.58;52.00;59.08;;
71030;Laerm;63723;51.436;5.976;2023-02-01T00:34:29;56.02;51.35;60.24;;
71030;Laerm;63723;51.436;5.976;2023-02-01T00:34:39;56.19;51.80;59.41;;
71030;Laerm;63723;51.436;5.976;2023-02-01T00:34:49;57.04;51.94;60.85;;
71030;Laerm;63723;51.436;5.976;2023-02-01T00:35:00;55.37;52.54;57.83;;
71030;Laerm;63723;51.436;5.976;2023-02-01T00:35:11;55.27;50.93;57.40;;
71030;Laerm;63723;51.436;5.976;2023-02-01T00:35:21;55.64;52.45;58.27;;
71030;Laerm;63723;51.436;5.976;2023-02-01T00:35:33;56.87;52.87;59.28;;
71030;Laerm;63723;51.436;5.976;2023-02-01T00:35:43;56.37;51.05;59.94;;
71030;Laerm;63723;51.436;5.976;2023-02-01T00:35:57;55.95;53.17;58.23;;
71030;Laerm;63723;51.436;5.976;2023-02-01T00:36:08;56.35;52.04;59.80;;
71030;Laerm;63723;51.436;5.976;2023-02-01T00:36:19;58.01;53.96;60.24;;
71030;Laerm;63723;51.436;5.976;2023-02-01T00:36:29;56.73;52.13;60.41;;
71030;Laerm;63723;51.436;5.976;2023-02-01T00:36:40;55.99;53.43;57.72;;
71030;Laerm;63723;51.436;5.976;2023-02-01T00:36:51;55.48;51.80;57.62;;
71030;Laerm;63723;51.436;5.976;2023-02-01T00:37:01;55.54;51.58;58.21;;
71030;Laerm;63723;51.436;5.976;2023-02-01T00:37:11;54.48;50.18;58.90;;
71030;Laerm;63723;51.436;5.976;2023-02-01T00:37:21;54.81;50.49;58.21;;
71030;Laerm;63723;51.436;5.976;2023-02-01T00:37:33;54.98;50.45;57.99;;
71030;Laerm;63723;51.436;5.976;2023-02-01T00:37:43;55.11;53.77;56.28;;
71030;Laerm;63723;51.436;5.976;2023-02-01T00:37:53;55.37;53.09;59.16;;
71030;Laerm;63723;51.436;5.976;2023-02-01T00:38:03;54.22;50.66;58.06;;
71030;Laerm;63723;51.436;5.976;2023-02-01T00:38:14;55.10;51.85;59.43;;
71030;Laerm;63723;51.436;5.976;2023-02-01T00:38:24;56.57;51.81;58.86;;
71030;Laerm;63723;51.436;5.976;2023-02-01T00:38:36;55.92;50.46;59.09;;
71030;Laerm;63723;51.436;5.976;2023-02-01T00:38:47;55.00;51.61;56.64;;
71030;Laerm;63723;51.436;5.976;2023-02-01T00:38:57;54.99;52.39;56.51;;
71030;Laerm;63723;51.436;5.976;2023-02-01T00:39:08;55.83;52.33;57.95;;
71030;Laerm;63723;51.436;5.976;2023-02-01T00:39:18;55.39;50.39;58.10;;
71030;Laerm;63723;51.436;5.976;2023-02-01T00:39:29;53.55;50.41;57.74;;
71030;Laerm;63723;51.436;5.976;2023-02-01T00:39:39;53.90;50.25;58.12;;
71030;Laerm;63723;51.436;5.976;2023-02-01T00:39:49;53.60;49.84;55.42;;
71030;Laerm;63723;51.436;5.976;2023-02-01T00:40:00;54.83;51.38;56.91;;
71030;Laerm;63723;51.436;5.976;2023-02-01T00:40:10;55.87;50.85;59.99;;
71030;Laerm;63723;51.436;5.976;2023-02-01T00:40:21;56.30;51.38;59.84;;
71030;Laerm;63723;51.436;5.976;2023-02-01T00:40:31;53.50;51.11;56.75;;
71030;Laerm;63723;51.436;5.976;2023-02-01T00:40:41;53.80;51.36;57.23;;
71030;Laerm;63723;51.436;5.976;2023-02-01T00:40:51;55.50;51.67;59.89;;
71030;Laerm;63723;51.436;5.976;2023-02-01T00:41:05;56.44;52.29;58.59;;
71030;Laerm;63723;51.436;5.976;2023-02-01T00:41:17;56.40;52.48;58.51;;
71030;Laerm;63723;51.436;5.976;2023-02-01T00:41:28;56.31;52.64;58.00;;
71030;Laerm;63723;51.436;5.976;2023-02-01T00:41:38;56.62;52.75;58.57;;
71030;Laerm;63723;51.436;5.976;2023-02-01T00:41:50;56.77;53.01;58.34;;
71030;Laerm;63723;51.436;5.976;2023-02-01T00:42:00;56.57;54.18;58.24;;
71030;Laerm;63723;51.436;5.976;2023-02-01T00:42:12;55.77;51.09;57.73;;
71030;Laerm;63723;51.436;5.976;2023-02-01T00:42:22;54.76;49.90;56.63;;
71030;Laerm;63723;51.436;5.976;2023-02-01T00:42:32;54.89;51.22;57.17;;
71030;Laerm;63723;51.436;5.976;2023-02-01T00:42:43;56.64;51.94;58.34;;
71030;Laerm;63723;51.436;5.976;2023-02-01T00:42:53;56.73;54.83;58.42;;
71030;Laerm;63723;51.436;5.976;2023-02-01T00:43:03;56.92;52.90;58.53;;
71030;Laerm;63723;51.436;5.976;2023-02-01T00:43:13;56.77;53.81;58.34;;
71030;Laerm;63723;51.436;5.976;2023-02-01T00:43:24;55.22;51.02;59.89;;
71030;Laerm;63723;51.436;5.976;2023-02-01T00:43:34;56.26;50.60;65.39;;
71030;Laerm;63723;51.436;5.976;2023-02-01T00:43:44;56.64;54.52;58.10;;
71030;Laerm;63723;51.436;5.976;2023-02-01T00:43:55;56.50;53.41;57.84;;
71030;Laerm;63723;51.436;5.976;2023-02-01T00:44:05;55.56;53.10;59.44;;
71030;Laerm;63723;51.436;5.976;2023-02-01T00:44:15;54.97;51.72;56.84;;
71030;Laerm;63723;51.436;5.976;2023-02-01T00:44:25;55.00;50.55;56.74;;
71030;Laerm;63723;51.436;5.976;2023-02-01T00:44:37;54.91;51.46;56.67;;
71030;Laerm;63723;51.436;5.976;2023-02-01T00:44:47;54.77;52.41;56.48;;
71030;Laerm;63723;51.436;5.976;2023-02-01T00:44:57;54.86;51.16;56.90;;
71030;Laerm;63723;51.436;5.976;2023-02-01T00:45:07;56.01;52.67;57.50;;
71030;Laerm;63723;51.436;5.976;2023-02-01T00:45:18;55.96;52.96;57.34;;
71030;Laerm;63723;51.436;5.976;2023-02-01T00:45:28;53.94;50.91;56.82;;
71030;Laerm;63723;51.436;5.976;2023-02-01T00:45:39;53.17;50.93;54.89;;
71030;Laerm;63723;51.436;5.976;2023-02-01T00:45:49;53.98;51.58;56.45;;
71030;Laerm;63723;51.436;5.976;2023-02-01T00:45:59;54.87;51.51;56.63;;
71030;Laerm;63723;51.436;5.976;2023-02-01T00:46:11;54.61;51.59;56.37;;
71030;Laerm;63723;51.436;5.976;2023-02-01T00:46:22;54.30;50.84;57.62;;
71030;Laerm;63723;51.436;5.976;2023-02-01T00:46:32;52.88;50.10;54.82;;
71030;Laerm;63723;51.436;5.976;2023-02-01T00:46:42;52.72;50.66;55.66;;
71030;Laerm;63723;51.436;5.976;2023-02-01T00:46:52;55.72;51.80;57.26;;
71030;Laerm;63723;51.436;5.976;2023-02-01T00:47:03;55.81;53.49;57.70;;
71030;Laerm;63723;51.436;5.976;2023-02-01T00:47:13;55.60;51.85;57.05;;
71030;Laerm;63723;51.436;5.976;2023-02-01T00:47:23;56.39;52.11;58.69;;
71030;Laerm;63723;51.436;5.976;2023-02-01T00:47:34;57.44;53.52;59.05;;
71030;Laerm;63723;51.436;5.976;2023-02-01T00:47:44;57.49;53.36;58.94;;
71030;Laerm;63723;51.436;5.976;2023-02-01T00:47:54;57.64;53.44;59.32;;
71030;Laerm;63723;51.436;5.976;2023-02-01T00:48:05;57.46;55.21;59.30;;
71030;Laerm;63723;51.436;5.976;2023-02-01T00:48:15;57.01;53.24;58.80;;
71030;Laerm;63723;51.436;5.976;2023-02-01T00:48:25;55.96;51.60;57.36;;
71030;Laerm;63723;51.436;5.976;2023-02-01T00:48:36;56.02;52.91;57.46;;
71030;Laerm;63723;51.436;5.976;2023-02-01T00:48:46;56.14;53.95;57.77;;
71030;Laerm;63723;51.436;5.976;2023-02-01T00:48:57;56.15;54.04;57.66;;
71030;Laerm;63723;51.436;5.976;2023-02-01T00:49:07;55.81;52.73;57.50;;
71030;Laerm;63723;51.436;5.976;2023-02-01T00:49:19;55.89;52.11;57.51;;
71030;Laerm;63723;51.436;5.976;2023-02-01T00:49:29;55.94;52.43;57.22;;
71030;Laerm;63723;51.436;5.976;2023-02-01T00:49:39;56.00;52.30;57.14;;
71030;Laerm;63723;51.436;5.976;2023-02-01T00:49:49;57.69;54.88;59.09;;
71030;Laerm;63723;51.436;5.976;2023-02-01T00:50:00;57.75;54.18;59.32;;
71030;Laerm;63723;51.436;5.976;2023-02-01T00:50:10;57.35;53.78;59.03;;
71030;Laerm;63723;51.436;5.976;2023-02-01T00:50:21;57.46;54.09;59.19;;
71030;Laerm;63723;51.436;5.976;2023-02-01T00:50:31;57.59;54.73;59.17;;
71030;Laerm;63723;51.436;5.976;2023-02-01T00:50:42;57.80;53.30;59.08;;
71030;Laerm;63723;51.436;5.976;2023-02-01T00:50:52;56.80;53.84;59.02;;
71030;Laerm;63723;51.436;5.976;2023-02-01T00:51:04;56.31;52.83;57.49;;
71030;Laerm;63723;51.436;5.976;2023-02-01T00:51:16;55.83;52.03;59.18;;
71030;Laerm;63723;51.436;5.976;2023-02-01T00:51:26;55.87;51.69;57.22;;
71030;Laerm;63723;51.436;5.976;2023-02-01T00:51:37;55.82;53.38;57.24;;
71030;Laerm;63723;51.436;5.976;2023-02-01T00:51:47;55.93;54.20;57.17;;
71030;Laerm;63723;51.436;5.976;2023-02-01T00:51:58;56.04;53.75;57.41;;
71030;Laerm;63723;51.436;5.976;2023-02-01T00:52:08;55.96;54.55;57.22;;
71030;Laerm;63723;51.436;5.976;2023-02-01T00:52:18;55.85;53.47;57.52;;
71030;Laerm;63723;51.436;5.976;2023-02-01T00:52:28;56.12;51.63;58.38;;
71030;Laerm;63723;51.436;5.976;2023-02-01T00:52:39;57.84;56.05;59.13;;
71030;Laerm;63723;51.436;5.976;2023-02-01T00:52:49;57.81;54.50;59.88;;
71030;Laerm;63723;51.436;5.976;2023-02-01T00:52:59;57.27;54.04;58.91;;
71030;Laerm;63723;51.436;5.976;2023-02-01T00:53:10;57.38;53.49;58.60;;
71030;Laerm;63723;51.436;5.976;2023-02-01T00:53:20;55.82;52.22;58.13;;
71030;Laerm;63723;51.436;5.976;2023-02-01T00:53:31;55.51;52.04;57.57;;
71030;Laerm;63723;51.436;5.976;2023-02-01T00:53:41;55.55;53.57;57.17;;
71030;Laerm;63723;51.436;5.976;2023-02-01T00:53:52;55.41;53.25;57.12;;
71030;Laerm;63723;51.436;5.976;2023-02-01T00:54:02;55.62;51.90;57.42;;
71030;Laerm;63723;51.436;5.976;2023-02-01T00:54:13;55.53;52.40;56.97;;
71030;Laerm;63723;51.436;5.976;2023-02-01T00:54:23;55.60;51.38;56.81;;
71030;Laerm;63723;51.436;5.976;2023-02-01T00:54:34;55.65;51.30;57.39;;
71030;Laerm;63723;51.436;5.976;2023-02-01T00:54:45;55.45;53.61;57.40;;
71030;Laerm;63723;51.436;5.976;2023-02-01T00:54:56;55.23;51.18;56.56;;
71030;Laerm;63723;51.436;5.976;2023-02-01T00:55:06;55.62;52.84;57.01;;
71030;Laerm;63723;51.436;5.976;2023-02-01T00:55:16;55.41;53.46;56.84;;
71030;Laerm;63723;51.436;5.976;2023-02-01T00:55:26;55.57;52.30;56.96;;
71030;Laerm;63723;51.436;5.976;2023-02-01T00:55:37;55.51;51.77;57.09;;
71030;Laerm;63723;51.436;5.976;2023-02-01T00:55:47;55.46;51.13;56.88;;
71030;Laerm;63723;51.436;5.976;2023-02-01T00:55:58;55.66;53.11;57.00;;
71030;Laerm;63723;51.436;5.976;2023-02-01T00:56:08;55.66;54.14;56.94;;
71030;Laerm;63723;51.436;5.976;2023-02-01T00:56:19;55.63;53.66;56.92;;
71030;Laerm;63723;51.436;5.976;2023-02-01T00:56:29;55.60;53.35;56.77;;
71030;Laerm;63723;51.436;5.976;2023-02-01T00:56:40;55.35;52.29;56.87;;
71030;Laerm;63723;51.436;5.976;2023-02-01T00:56:50;55.20;51.63;56.67;;
71030;Laerm;63723;51.436;5.976;2023-02-01T00:57:00;55.30;51.69;56.82;;
71030;Laerm;63723;51.436;5.976;2023-02-01T00:57:11;55.13;52.10;56.46;;
71030;Laerm;63723;51.436;5.976;2023-02-01T00:57:21;55.15;49.58;56.89;;
71030;Laerm;63723;51.436;5.976;2023-02-01T00:57:31;54.64;49.58;58.23;;
71030;Laerm;63723;51.436;5.976;2023-02-01T00:57:41;51.29;49.45;52.72;;
71030;Laerm;63723;51.436;5.976;2023-02-01T00:57:52;51.30;49.49;52.60;;
71030;Laerm;63723;51.436;5.976;2023-02-01T00:58:02;51.44;49.98;55.44;;
71030;Laerm;63723;51.436;5.976;2023-02-01T00:58:13;51.70;49.53;57.58;;
71030;Laerm;63723;51.436;5.976;2023-02-01T00:58:24;51.10;49.20;52.62;;
71030;Laerm;63723;51.436;5.976;2023-02-01T00:58:35;50.70;48.88;52.18;;
71030;Laerm;63723;51.436;5.976;2023-02-01T00:58:45;50.65;49.35;51.99;;
71030;Laerm;63723;51.436;5.976;2023-02-01T00:58:56;50.64;49.13;52.70;;
71030;Laerm;63723;51.436;5.976;2023-02-01T00:59:07;50.83;49.18;53.27;;
71030;Laerm;63723;51.436;5.976;2023-02-01T00:59:18;50.65;49.50;51.93;;
71030;Laerm;63723;51.436;5.976;2023-02-01T00:59:28;50.60;49.21;51.59;;
71030;Laerm;63723;51.436;5.976;2023-02-01T00:59:38;50.45;49.09;51.87;;
71030;Laerm;63723;51.436;5.976;2023-02-01T00:59:49;50.46;49.20;52.01;;